sensor_id;sensor_type;location;lat;lon;timestamp;P1;durP1;ratioP1;P2;durP2;ratioP2
19758;SDS011;10038;42.662;23.278;2022-12-20T00:01:24;14.55;;;6.30;;
19758;SDS011;10038;42.662;23.278;2022-12-20T00:03:52;15.88;;;6.53;;
19758;SDS011;10038;42.662;23.278;2022-12-20T00:06:19;11.00;;;6.30;;
19758;SDS011;10038;42.662;23.278;2022-12-20T00:08:45;12.90;;;7.32;;
19758;SDS011;10038;42.662;23.278;2022-12-20T00:11:12;14.77;;;7.40;;
19758;SDS011;10038;42.662;23.278;2022-12-20T00:13:39;12.77;;;6.35;;
19758;SDS011;10038;42.662;23.278;2022-12-20T00:16:07;14.02;;;7.15;;
19758;SDS011;10038;42.662;23.278;2022-12-20T00:18:34;11.90;;;7.85;;
19758;SDS011;10038;42.662;23.278;2022-12-20T00:21:02;17.40;;;8.20;;
19758;SDS011;10038;42.662;23.278;2022-12-20T00:32:38;17.00;;;7.97;;
19758;SDS011;10038;42.662;23.278;2022-12-20T00:35:05;9.10;;;5.80;;
19758;SDS011;10038;42.662;23.278;2022-12-20T00:37:32;13.05;;;6.68;;
19758;SDS011;10038;42.662;23.278;2022-12-20T00:39:58;10.13;;;6.70;;
19758;SDS011;10038;42.662;23.278;2022-12-20T00:42:25;16.63;;;6.18;;
19758;SDS011;10038;42.662;23.278;2022-12-20T00:44:51;17.55;;;7.15;;
19758;SDS011;10038;42.662;23.278;2022-12-20T00:47:18;11.25;;;6.95;;
19758;SDS011;10038;42.662;23.278;2022-12-20T00:49:46;10.93;;;6.18;;
19758;SDS011;10038;42.662;23.278;2022-12-20T00:52:12;11.63;;;6.32;;
19758;SDS011;10038;42.662;23.278;2022-12-20T00:54:38;11.73;;;6.03;;
19758;SDS011;10038;42.662;23.278;2022-12-20T00:57:05;12.00;;;6.68;;
19758;SDS011;10038;42.662;23.278;2022-12-20T00:59:31;12.57;;;6.72;;
19758;SDS011;10038;42.662;23.278;2022-12-20T01:01:58;12.00;;;5.68;;
19758;SDS011;10038;42.662;23.278;2022-12-20T01:04:25;14.20;;;7.05;;
19758;SDS011;10038;42.662;23.278;2022-12-20T01:06:53;13.35;;;6.43;;
19758;SDS011;10038;42.662;23.278;2022-12-20T01:09:19;8.85;;;5.53;;
19758;SDS011;10038;42.662;23.278;2022-12-20T01:11:45;9.27;;;5.90;;
19758;SDS011;10038;42.662;23.278;2022-12-20T01:14:13;14.10;;;5.75;;
19758;SDS011;10038;42.662;23.278;2022-12-20T01:16:42;9.43;;;5.90;;
19758;SDS011;10038;42.662;23.278;2022-12-20T01:19:10;11.43;;;5.50;;
19758;SDS011;10038;42.662;23.278;2022-12-20T01:21:36;8.93;;;5.70;;
19758;SDS011;10038;42.662;23.278;2022-12-20T01:24:05;14.60;;;6.80;;
19758;SDS011;10038;42.662;23.278;2022-12-20T01:26:32;13.13;;;6.28;;
19758;SDS011;10038;42.662;23.278;2022-12-20T01:28:58;12.38;;;6.70;;
19758;SDS011;10038;42.662;23.278;2022-12-20T01:31:25;12.40;;;5.85;;
19758;SDS011;10038;42.662;23.278;2022-12-20T01:33:52;9.38;;;5.28;;
19758;SDS011;10038;42.662;23.278;2022-12-20T01:36:19;12.85;;;6.25;;
19758;SDS011;10038;42.662;23.278;2022-12-20T01:38:45;11.23;;;5.35;;
19758;SDS011;10038;42.662;23.278;2022-12-20T01:41:14;13.38;;;5.85;;
19758;SDS011;10038;42.662;23.278;2022-12-20T01:43:45;12.07;;;6.38;;
19758;SDS011;10038;42.662;23.278;2022-12-20T01:46:12;11.23;;;6.38;;
19758;SDS011;10038;42.662;23.278;2022-12-20T01:48:38;10.73;;;5.60;;
19758;SDS011;10038;42.662;23.278;2022-12-20T01:51:06;17.23;;;7.63;;
19758;SDS011;10038;42.662;23.278;2022-12-20T01:53:33;11.38;;;5.70;;
19758;SDS011;10038;42.662;23.278;2022-12-20T01:56:00;14.90;;;6.95;;
19758;SDS011;10038;42.662;23.278;2022-12-20T01:58:30;7.28;;;5.30;;
19758;SDS011;10038;42.662;23.278;2022-12-20T02:00:57;10.73;;;6.25;;
19758;SDS011;10038;42.662;23.278;2022-12-20T02:03:24;15.15;;;7.80;;
19758;SDS011;10038;42.662;23.278;2022-12-20T02:05:50;14.80;;;5.72;;
19758;SDS011;10038;42.662;23.278;2022-12-20T02:08:17;7.10;;;4.43;;
19758;SDS011;10038;42.662;23.278;2022-12-20T02:13:27;16.45;;;6.32;;
19758;SDS011;10038;42.662;23.278;2022-12-20T02:15:58;15.93;;;6.95;;
19758;SDS011;10038;42.662;23.278;2022-12-20T02:18:26;10.40;;;5.90;;
19758;SDS011;10038;42.662;23.278;2022-12-20T02:21:01;12.13;;;5.38;;
19758;SDS011;10038;42.662;23.278;2022-12-20T02:23:41;12.73;;;5.38;;
19758;SDS011;10038;42.662;23.278;2022-12-20T02:26:18;14.63;;;6.10;;
19758;SDS011;10038;42.662;23.278;2022-12-20T02:31:39;11.63;;;5.85;;
19758;SDS011;10038;42.662;23.278;2022-12-20T02:34:07;9.38;;;4.90;;
19758;SDS011;10038;42.662;23.278;2022-12-20T02:36:34;16.95;;;8.10;;
19758;SDS011;10038;42.662;23.278;2022-12-20T02:39:00;8.70;;;6.57;;
19758;SDS011;10038;42.662;23.278;2022-12-20T02:41:28;10.73;;;6.47;;
19758;SDS011;10038;42.662;23.278;2022-12-20T02:43:56;16.70;;;7.47;;
19758;SDS011;10038;42.662;23.278;2022-12-20T02:46:42;12.13;;;7.18;;
19758;SDS011;10038;42.662;23.278;2022-12-20T02:49:09;12.23;;;5.80;;
19758;SDS011;10038;42.662;23.278;2022-12-20T02:51:37;12.45;;;7.72;;
19758;SDS011;10038;42.662;23.278;2022-12-20T02:54:04;12.85;;;6.45;;
19758;SDS011;10038;42.662;23.278;2022-12-20T02:56:32;14.82;;;7.15;;
19758;SDS011;10038;42.662;23.278;2022-12-20T02:59:01;18.52;;;8.57;;
19758;SDS011;10038;42.662;23.278;2022-12-20T03:01:29;18.48;;;9.07;;
19758;SDS011;10038;42.662;23.278;2022-12-20T03:03:58;15.43;;;6.95;;
19758;SDS011;10038;42.662;23.278;2022-12-20T03:06:25;12.95;;;6.75;;
19758;SDS011;10038;42.662;23.278;2022-12-20T03:08:51;8.57;;;6.13;;
19758;SDS011;10038;42.662;23.278;2022-12-20T03:11:18;11.75;;;5.80;;
19758;SDS011;10038;42.662;23.278;2022-12-20T03:13:45;13.27;;;6.45;;
19758;SDS011;10038;42.662;23.278;2022-12-20T03:16:11;13.55;;;6.63;;
19758;SDS011;10038;42.662;23.278;2022-12-20T03:18:38;12.82;;;6.78;;
19758;SDS011;10038;42.662;23.278;2022-12-20T03:21:06;13.52;;;5.45;;
19758;SDS011;10038;42.662;23.278;2022-12-20T03:23:32;13.85;;;5.00;;
19758;SDS011;10038;42.662;23.278;2022-12-20T03:25:59;8.10;;;4.85;;
19758;SDS011;10038;42.662;23.278;2022-12-20T03:28:25;9.77;;;6.00;;
19758;SDS011;10038;42.662;23.278;2022-12-20T03:30:52;12.13;;;5.60;;
19758;SDS011;10038;42.662;23.278;2022-12-20T03:33:18;10.85;;;4.38;;
19758;SDS011;10038;42.662;23.278;2022-12-20T03:35:45;10.35;;;5.68;;
19758;SDS011;10038;42.662;23.278;2022-12-20T03:38:13;13.20;;;6.65;;
19758;SDS011;10038;42.662;23.278;2022-12-20T03:40:40;10.38;;;5.28;;
19758;SDS011;10038;42.662;23.278;2022-12-20T03:43:06;11.88;;;5.45;;
19758;SDS011;10038;42.662;23.278;2022-12-20T03:45:32;10.63;;;5.13;;
19758;SDS011;10038;42.662;23.278;2022-12-20T03:47:59;7.55;;;4.60;;
19758;SDS011;10038;42.662;23.278;2022-12-20T03:50:25;11.65;;;4.80;;
19758;SDS011;10038;42.662;23.278;2022-12-20T03:52:52;14.43;;;5.00;;
19758;SDS011;10038;42.662;23.278;2022-12-20T03:55:20;11.77;;;6.60;;
19758;SDS011;10038;42.662;23.278;2022-12-20T03:57:46;9.60;;;5.63;;
19758;SDS011;10038;42.662;23.278;2022-12-20T04:00:13;10.18;;;5.30;;
19758;SDS011;10038;42.662;23.278;2022-12-20T04:02:40;9.95;;;5.25;;
19758;SDS011;10038;42.662;23.278;2022-12-20T04:05:07;12.18;;;5.35;;
19758;SDS011;10038;42.662;23.278;2022-12-20T04:07:33;15.52;;;5.30;;
19758;SDS011;10038;42.662;23.278;2022-12-20T04:10:00;10.00;;;6.93;;
19758;SDS011;10038;42.662;23.278;2022-12-20T04:12:28;11.65;;;6.22;;
19758;SDS011;10038;42.662;23.278;2022-12-20T04:14:54;14.13;;;7.18;;
19758;SDS011;10038;42.662;23.278;2022-12-20T04:17:21;14.48;;;6.03;;
19758;SDS011;10038;42.662;23.278;2022-12-20T04:19:47;16.40;;;7.53;;
19758;SDS011;10038;42.662;23.278;2022-12-20T04:22:13;13.40;;;7.00;;
19758;SDS011;10038;42.662;23.278;2022-12-20T04:24:40;13.27;;;7.22;;
19758;SDS011;10038;42.662;23.278;2022-12-20T04:27:06;16.02;;;8.45;;
19758;SDS011;10038;42.662;23.278;2022-12-20T04:29:34;18.70;;;7.13;;
19758;SDS011;10038;42.662;23.278;2022-12-20T04:32:01;13.15;;;8.07;;
19758;SDS011;10038;42.662;23.278;2022-12-20T04:34:27;19.00;;;8.75;;
19758;SDS011;10038;42.662;23.278;2022-12-20T04:36:54;13.05;;;7.55;;
19758;SDS011;10038;42.662;23.278;2022-12-20T04:39:20;20.45;;;9.15;;
19758;SDS011;10038;42.662;23.278;2022-12-20T04:41:46;24.90;;;9.68;;
19758;SDS011;10038;42.662;23.278;2022-12-20T04:44:13;13.80;;;7.63;;
19758;SDS011;10038;42.662;23.278;2022-12-20T04:46:41;17.52;;;7.72;;
19758;SDS011;10038;42.662;23.278;2022-12-20T04:49:07;15.27;;;6.70;;
19758;SDS011;10038;42.662;23.278;2022-12-20T04:51:34;17.80;;;8.18;;
19758;SDS011;10038;42.662;23.278;2022-12-20T04:54:00;14.60;;;6.57;;
19758;SDS011;10038;42.662;23.278;2022-12-20T04:56:26;15.47;;;7.27;;
19758;SDS011;10038;42.662;23.278;2022-12-20T04:58:54;14.25;;;8.63;;
19758;SDS011;10038;42.662;23.278;2022-12-20T05:01:21;11.63;;;6.03;;
19758;SDS011;10038;42.662;23.278;2022-12-20T05:03:49;16.65;;;7.88;;
19758;SDS011;10038;42.662;23.278;2022-12-20T05:06:16;13.35;;;6.93;;
19758;SDS011;10038;42.662;23.278;2022-12-20T05:08:42;12.65;;;6.85;;
19758;SDS011;10038;42.662;23.278;2022-12-20T05:11:09;17.15;;;9.40;;
19758;SDS011;10038;42.662;23.278;2022-12-20T05:13:36;16.45;;;7.63;;
19758;SDS011;10038;42.662;23.278;2022-12-20T05:16:02;22.70;;;9.27;;
19758;SDS011;10038;42.662;23.278;2022-12-20T05:18:29;15.50;;;8.00;;
19758;SDS011;10038;42.662;23.278;2022-12-20T05:20:57;18.98;;;8.55;;
19758;SDS011;10038;42.662;23.278;2022-12-20T05:23:41;8.27;;;7.10;;
19758;SDS011;10038;42.662;23.278;2022-12-20T05:26:26;18.95;;;6.97;;
19758;SDS011;10038;42.662;23.278;2022-12-20T05:28:54;16.48;;;9.73;;
19758;SDS011;10038;42.662;23.278;2022-12-20T05:31:20;14.18;;;8.35;;
19758;SDS011;10038;42.662;23.278;2022-12-20T05:33:47;10.50;;;8.55;;
19758;SDS011;10038;42.662;23.278;2022-12-20T05:36:15;23.25;;;10.40;;
19758;SDS011;10038;42.662;23.278;2022-12-20T05:38:42;13.48;;;7.90;;
19758;SDS011;10038;42.662;23.278;2022-12-20T05:41:08;14.02;;;8.57;;
19758;SDS011;10038;42.662;23.278;2022-12-20T05:43:35;13.63;;;7.32;;
19758;SDS011;10038;42.662;23.278;2022-12-20T05:46:02;19.80;;;9.65;;
19758;SDS011;10038;42.662;23.278;2022-12-20T05:48:28;19.15;;;9.40;;
19758;SDS011;10038;42.662;23.278;2022-12-20T05:50:55;18.10;;;10.93;;
19758;SDS011;10038;42.662;23.278;2022-12-20T05:53:22;22.50;;;10.13;;
19758;SDS011;10038;42.662;23.278;2022-12-20T05:55:51;30.08;;;14.80;;
19758;SDS011;10038;42.662;23.278;2022-12-20T05:58:18;27.98;;;13.60;;
19758;SDS011;10038;42.662;23.278;2022-12-20T06:00:45;28.80;;;13.82;;
19758;SDS011;10038;42.662;23.278;2022-12-20T06:03:13;32.25;;;14.60;;
19758;SDS011;10038;42.662;23.278;2022-12-20T06:05:41;20.35;;;11.52;;
19758;SDS011;10038;42.662;23.278;2022-12-20T06:08:08;26.77;;;14.20;;
19758;SDS011;10038;42.662;23.278;2022-12-20T06:10:36;30.23;;;13.23;;
19758;SDS011;10038;42.662;23.278;2022-12-20T06:13:04;23.83;;;11.18;;
19758;SDS011;10038;42.662;23.278;2022-12-20T06:15:31;17.65;;;10.43;;
19758;SDS011;10038;42.662;23.278;2022-12-20T06:17:58;23.15;;;12.18;;
19758;SDS011;10038;42.662;23.278;2022-12-20T06:20:24;17.48;;;11.10;;
19758;SDS011;10038;42.662;23.278;2022-12-20T06:22:51;19.98;;;10.23;;
19758;SDS011;10038;42.662;23.278;2022-12-20T06:25:17;19.67;;;10.65;;
19758;SDS011;10038;42.662;23.278;2022-12-20T06:27:46;21.85;;;10.50;;
19758;SDS011;10038;42.662;23.278;2022-12-20T06:30:12;20.25;;;11.25;;
19758;SDS011;10038;42.662;23.278;2022-12-20T06:32:39;17.08;;;9.45;;
19758;SDS011;10038;42.662;23.278;2022-12-20T06:35:06;15.50;;;9.73;;
19758;SDS011;10038;42.662;23.278;2022-12-20T06:37:32;17.83;;;10.10;;
19758;SDS011;10038;42.662;23.278;2022-12-20T06:39:59;14.85;;;10.20;;
19758;SDS011;10038;42.662;23.278;2022-12-20T06:42:25;18.55;;;10.23;;
19758;SDS011;10038;42.662;23.278;2022-12-20T06:44:53;28.90;;;12.25;;
19758;SDS011;10038;42.662;23.278;2022-12-20T06:47:19;18.02;;;11.35;;
19758;SDS011;10038;42.662;23.278;2022-12-20T06:49:46;27.58;;;10.10;;
19758;SDS011;10038;42.662;23.278;2022-12-20T06:52:12;17.67;;;10.13;;
19758;SDS011;10038;42.662;23.278;2022-12-20T06:54:39;25.00;;;10.35;;
19758;SDS011;10038;42.662;23.278;2022-12-20T06:57:05;23.50;;;11.18;;
19758;SDS011;10038;42.662;23.278;2022-12-20T06:59:32;18.45;;;11.27;;
19758;SDS011;10038;42.662;23.278;2022-12-20T07:02:00;28.63;;;12.30;;
19758;SDS011;10038;42.662;23.278;2022-12-20T07:04:27;18.25;;;9.45;;
19758;SDS011;10038;42.662;23.278;2022-12-20T07:06:53;17.10;;;9.20;;
19758;SDS011;10038;42.662;23.278;2022-12-20T07:09:21;21.90;;;9.07;;
19758;SDS011;10038;42.662;23.278;2022-12-20T07:11:47;20.42;;;10.50;;
19758;SDS011;10038;42.662;23.278;2022-12-20T07:14:14;18.48;;;9.43;;
19758;SDS011;10038;42.662;23.278;2022-12-20T07:16:40;20.60;;;9.95;;
19758;SDS011;10038;42.662;23.278;2022-12-20T07:19:10;19.75;;;8.23;;
19758;SDS011;10038;42.662;23.278;2022-12-20T07:21:37;12.70;;;8.20;;
19758;SDS011;10038;42.662;23.278;2022-12-20T07:24:04;13.57;;;8.30;;
19758;SDS011;10038;42.662;23.278;2022-12-20T07:26:30;11.93;;;7.53;;
19758;SDS011;10038;42.662;23.278;2022-12-20T07:28:57;13.13;;;7.03;;
19758;SDS011;10038;42.662;23.278;2022-12-20T07:31:23;22.20;;;8.33;;
19758;SDS011;10038;42.662;23.278;2022-12-20T07:33:50;12.27;;;7.63;;
19758;SDS011;10038;42.662;23.278;2022-12-20T07:36:18;12.97;;;7.83;;
19758;SDS011;10038;42.662;23.278;2022-12-20T07:38:44;13.50;;;7.60;;
19758;SDS011;10038;42.662;23.278;2022-12-20T07:41:11;12.60;;;8.30;;
19758;SDS011;10038;42.662;23.278;2022-12-20T07:43:38;11.53;;;7.40;;
19758;SDS011;10038;42.662;23.278;2022-12-20T07:46:05;12.30;;;6.80;;
19758;SDS011;10038;42.662;23.278;2022-12-20T07:48:32;13.10;;;8.27;;
19758;SDS011;10038;42.662;23.278;2022-12-20T07:51:00;10.07;;;7.07;;
19758;SDS011;10038;42.662;23.278;2022-12-20T07:53:29;12.97;;;6.93;;
19758;SDS011;10038;42.662;23.278;2022-12-20T07:55:56;15.27;;;7.27;;
19758;SDS011;10038;42.662;23.278;2022-12-20T07:58:23;13.20;;;7.67;;
19758;SDS011;10038;42.662;23.278;2022-12-20T08:00:49;11.10;;;7.93;;
19758;SDS011;10038;42.662;23.278;2022-12-20T08:03:17;18.20;;;7.97;;
19758;SDS011;10038;42.662;23.278;2022-12-20T08:05:45;11.40;;;7.70;;
19758;SDS011;10038;42.662;23.278;2022-12-20T08:08:12;12.30;;;6.43;;
19758;SDS011;10038;42.662;23.278;2022-12-20T08:10:40;9.67;;;6.10;;
19758;SDS011;10038;42.662;23.278;2022-12-20T08:13:07;21.90;;;9.97;;
19758;SDS011;10038;42.662;23.278;2022-12-20T08:15:34;18.77;;;9.37;;
19758;SDS011;10038;42.662;23.278;2022-12-20T08:18:01;16.43;;;8.33;;
19758;SDS011;10038;42.662;23.278;2022-12-20T08:20:27;20.00;;;9.10;;
19758;SDS011;10038;42.662;23.278;2022-12-20T08:22:54;12.87;;;8.07;;
19758;SDS011;10038;42.662;23.278;2022-12-20T08:25:20;16.90;;;8.47;;
19758;SDS011;10038;42.662;23.278;2022-12-20T08:27:48;13.90;;;7.80;;
19758;SDS011;10038;42.662;23.278;2022-12-20T08:30:15;11.13;;;8.67;;
19758;SDS011;10038;42.662;23.278;2022-12-20T08:32:41;15.90;;;8.67;;
19758;SDS011;10038;42.662;23.278;2022-12-20T08:35:08;12.60;;;8.20;;
19758;SDS011;10038;42.662;23.278;2022-12-20T08:37:34;13.23;;;8.70;;
19758;SDS011;10038;42.662;23.278;2022-12-20T08:40:01;13.40;;;8.00;;
19758;SDS011;10038;42.662;23.278;2022-12-20T08:42:28;12.70;;;7.77;;
19758;SDS011;10038;42.662;23.278;2022-12-20T08:44:56;12.10;;;7.70;;
19758;SDS011;10038;42.662;23.278;2022-12-20T08:47:22;10.57;;;7.53;;
19758;SDS011;10038;42.662;23.278;2022-12-20T08:49:49;12.93;;;9.70;;
19758;SDS011;10038;42.662;23.278;2022-12-20T08:52:15;12.33;;;7.50;;
19758;SDS011;10038;42.662;23.278;2022-12-20T08:54:42;10.20;;;7.83;;
19758;SDS011;10038;42.662;23.278;2022-12-20T08:57:09;9.40;;;7.13;;
19758;SDS011;10038;42.662;23.278;2022-12-20T08:59:35;12.37;;;8.67;;
19758;SDS011;10038;42.662;23.278;2022-12-20T09:02:03;15.00;;;9.40;;
19758;SDS011;10038;42.662;23.278;2022-12-20T09:04:29;11.87;;;7.90;;
19758;SDS011;10038;42.662;23.278;2022-12-20T09:06:56;13.87;;;9.10;;
19758;SDS011;10038;42.662;23.278;2022-12-20T09:09:22;15.90;;;8.50;;
19758;SDS011;10038;42.662;23.278;2022-12-20T09:11:49;13.10;;;8.03;;
19758;SDS011;10038;42.662;23.278;2022-12-20T09:14:16;10.97;;;7.80;;
19758;SDS011;10038;42.662;23.278;2022-12-20T09:16:43;9.23;;;6.60;;
19758;SDS011;10038;42.662;23.278;2022-12-20T09:19:11;13.30;;;8.13;;
19758;SDS011;10038;42.662;23.278;2022-12-20T09:21:37;11.23;;;7.70;;
19758;SDS011;10038;42.662;23.278;2022-12-20T09:24:04;12.97;;;8.70;;
19758;SDS011;10038;42.662;23.278;2022-12-20T09:26:32;12.83;;;8.30;;
19758;SDS011;10038;42.662;23.278;2022-12-20T09:28:59;10.00;;;6.83;;
19758;SDS011;10038;42.662;23.278;2022-12-20T09:31:26;10.63;;;7.63;;
19758;SDS011;10038;42.662;23.278;2022-12-20T09:33:53;10.77;;;6.67;;
19758;SDS011;10038;42.662;23.278;2022-12-20T09:36:21;10.97;;;6.77;;
19758;SDS011;10038;42.662;23.278;2022-12-20T09:38:48;12.17;;;8.23;;
19758;SDS011;10038;42.662;23.278;2022-12-20T09:41:18;13.43;;;8.63;;
19758;SDS011;10038;42.662;23.278;2022-12-20T09:43:45;9.80;;;6.47;;
19758;SDS011;10038;42.662;23.278;2022-12-20T09:46:12;10.50;;;7.53;;
19758;SDS011;10038;42.662;23.278;2022-12-20T09:48:39;9.97;;;7.20;;
19758;SDS011;10038;42.662;23.278;2022-12-20T09:51:06;21.27;;;7.77;;
19758;SDS011;10038;42.662;23.278;2022-12-20T09:53:40;13.30;;;8.17;;
19758;SDS011;10038;42.662;23.278;2022-12-20T09:56:11;14.50;;;8.20;;
19758;SDS011;10038;42.662;23.278;2022-12-20T09:58:46;11.37;;;8.40;;
19758;SDS011;10038;42.662;23.278;2022-12-20T10:01:16;11.97;;;7.20;;
19758;SDS011;10038;42.662;23.278;2022-12-20T10:03:45;11.93;;;8.57;;
19758;SDS011;10038;42.662;23.278;2022-12-20T10:06:13;14.07;;;9.67;;
19758;SDS011;10038;42.662;23.278;2022-12-20T10:08:44;13.00;;;8.30;;
19758;SDS011;10038;42.662;23.278;2022-12-20T10:11:20;14.20;;;8.37;;
19758;SDS011;10038;42.662;23.278;2022-12-20T10:13:54;14.03;;;9.37;;
19758;SDS011;10038;42.662;23.278;2022-12-20T10:16:35;12.63;;;8.53;;
19758;SDS011;10038;42.662;23.278;2022-12-20T10:19:07;13.00;;;8.67;;
19758;SDS011;10038;42.662;23.278;2022-12-20T10:21:39;13.30;;;7.70;;
19758;SDS011;10038;42.662;23.278;2022-12-20T10:24:11;11.40;;;7.73;;
19758;SDS011;10038;42.662;23.278;2022-12-20T10:26:39;13.87;;;8.67;;
19758;SDS011;10038;42.662;23.278;2022-12-20T10:29:06;13.90;;;8.10;;
19758;SDS011;10038;42.662;23.278;2022-12-20T10:31:33;15.03;;;8.30;;
19758;SDS011;10038;42.662;23.278;2022-12-20T10:33:59;13.03;;;8.67;;
19758;SDS011;10038;42.662;23.278;2022-12-20T10:36:27;16.27;;;9.60;;
19758;SDS011;10038;42.662;23.278;2022-12-20T10:38:54;12.93;;;7.73;;
19758;SDS011;10038;42.662;23.278;2022-12-20T10:41:23;10.87;;;7.23;;
19758;SDS011;10038;42.662;23.278;2022-12-20T10:43:51;15.13;;;8.60;;
19758;SDS011;10038;42.662;23.278;2022-12-20T10:46:19;15.73;;;7.57;;
19758;SDS011;10038;42.662;23.278;2022-12-20T10:48:48;14.80;;;7.30;;
19758;SDS011;10038;42.662;23.278;2022-12-20T10:51:16;13.83;;;8.17;;
19758;SDS011;10038;42.662;23.278;2022-12-20T10:53:50;10.73;;;6.90;;
19758;SDS011;10038;42.662;23.278;2022-12-20T10:56:18;11.80;;;8.50;;
19758;SDS011;10038;42.662;23.278;2022-12-20T10:58:57;10.53;;;7.30;;
19758;SDS011;10038;42.662;23.278;2022-12-20T11:01:25;11.23;;;7.77;;
19758;SDS011;10038;42.662;23.278;2022-12-20T11:03:53;15.03;;;8.67;;
19758;SDS011;10038;42.662;23.278;2022-12-20T11:06:21;12.33;;;8.43;;
19758;SDS011;10038;42.662;23.278;2022-12-20T11:08:47;13.00;;;7.63;;
19758;SDS011;10038;42.662;23.278;2022-12-20T11:11:15;12.47;;;7.70;;
19758;SDS011;10038;42.662;23.278;2022-12-20T11:13:43;12.60;;;7.67;;
19758;SDS011;10038;42.662;23.278;2022-12-20T11:16:27;10.20;;;6.90;;
19758;SDS011;10038;42.662;23.278;2022-12-20T11:19:01;9.20;;;6.73;;
19758;SDS011;10038;42.662;23.278;2022-12-20T11:21:30;13.57;;;7.97;;
19758;SDS011;10038;42.662;23.278;2022-12-20T11:24:01;12.37;;;7.30;;
19758;SDS011;10038;42.662;23.278;2022-12-20T11:26:40;15.13;;;8.70;;
19758;SDS011;10038;42.662;23.278;2022-12-20T11:29:11;10.77;;;8.03;;
19758;SDS011;10038;42.662;23.278;2022-12-20T11:31:47;11.87;;;7.10;;
19758;SDS011;10038;42.662;23.278;2022-12-20T11:34:18;11.60;;;7.00;;
19758;SDS011;10038;42.662;23.278;2022-12-20T11:36:54;14.50;;;9.03;;
19758;SDS011;10038;42.662;23.278;2022-12-20T11:39:26;12.53;;;7.90;;
19758;SDS011;10038;42.662;23.278;2022-12-20T11:41:56;10.80;;;7.70;;
19758;SDS011;10038;42.662;23.278;2022-12-20T11:44:25;13.03;;;9.27;;
19758;SDS011;10038;42.662;23.278;2022-12-20T11:47:00;13.27;;;8.27;;
19758;SDS011;10038;42.662;23.278;2022-12-20T11:49:39;12.93;;;7.70;;
19758;SDS011;10038;42.662;23.278;2022-12-20T11:52:12;11.43;;;7.50;;
19758;SDS011;10038;42.662;23.278;2022-12-20T11:54:42;12.13;;;7.67;;
19758;SDS011;10038;42.662;23.278;2022-12-20T11:57:12;15.80;;;8.53;;
19758;SDS011;10038;42.662;23.278;2022-12-20T11:59:41;12.60;;;7.33;;
19758;SDS011;10038;42.662;23.278;2022-12-20T12:02:12;13.17;;;7.17;;
19758;SDS011;10038;42.662;23.278;2022-12-20T12:04:40;18.70;;;8.40;;
19758;SDS011;10038;42.662;23.278;2022-12-20T12:07:09;14.20;;;8.57;;
19758;SDS011;10038;42.662;23.278;2022-12-20T12:09:39;14.87;;;8.47;;
19758;SDS011;10038;42.662;23.278;2022-12-20T12:12:07;15.20;;;8.37;;
19758;SDS011;10038;42.662;23.278;2022-12-20T12:14:39;10.63;;;7.20;;
19758;SDS011;10038;42.662;23.278;2022-12-20T12:17:07;18.30;;;12.27;;
19758;SDS011;10038;42.662;23.278;2022-12-20T12:19:38;10.17;;;7.10;;
19758;SDS011;10038;42.662;23.278;2022-12-20T12:22:08;12.53;;;8.50;;
19758;SDS011;10038;42.662;23.278;2022-12-20T12:24:37;15.30;;;8.37;;
19758;SDS011;10038;42.662;23.278;2022-12-20T12:27:06;10.63;;;7.13;;
19758;SDS011;10038;42.662;23.278;2022-12-20T12:29:36;12.20;;;7.70;;
19758;SDS011;10038;42.662;23.278;2022-12-20T12:32:03;11.60;;;7.37;;
19758;SDS011;10038;42.662;23.278;2022-12-20T12:34:35;10.83;;;6.90;;
19758;SDS011;10038;42.662;23.278;2022-12-20T12:37:10;13.60;;;8.37;;
19758;SDS011;10038;42.662;23.278;2022-12-20T12:45:13;16.20;;;9.13;;
19758;SDS011;10038;42.662;23.278;2022-12-20T12:47:42;14.63;;;8.60;;
19758;SDS011;10038;42.662;23.278;2022-12-20T12:50:15;23.23;;;13.60;;
19758;SDS011;10038;42.662;23.278;2022-12-20T12:52:47;16.43;;;10.57;;
19758;SDS011;10038;42.662;23.278;2022-12-20T12:55:33;15.93;;;10.23;;
19758;SDS011;10038;42.662;23.278;2022-12-20T12:58:11;13.30;;;8.17;;
19758;SDS011;10038;42.662;23.278;2022-12-20T13:00:47;12.37;;;8.10;;
19758;SDS011;10038;42.662;23.278;2022-12-20T13:03:14;13.60;;;8.20;;
19758;SDS011;10038;42.662;23.278;2022-12-20T13:05:41;11.90;;;7.83;;
19758;SDS011;10038;42.662;23.278;2022-12-20T13:08:15;12.73;;;8.27;;
19758;SDS011;10038;42.662;23.278;2022-12-20T13:10:56;15.83;;;9.53;;
19758;SDS011;10038;42.662;23.278;2022-12-20T13:13:23;13.50;;;7.70;;
19758;SDS011;10038;42.662;23.278;2022-12-20T13:21:31;8.90;;;6.27;;
19758;SDS011;10038;42.662;23.278;2022-12-20T13:26:50;15.37;;;7.33;;
19758;SDS011;10038;42.662;23.278;2022-12-20T13:29:22;13.53;;;7.70;;
19758;SDS011;10038;42.662;23.278;2022-12-20T13:31:49;15.80;;;8.40;;
19758;SDS011;10038;42.662;23.278;2022-12-20T13:36:57;13.77;;;7.55;;
19758;SDS011;10038;42.662;23.278;2022-12-20T13:39:30;13.87;;;8.37;;
19758;SDS011;10038;42.662;23.278;2022-12-20T13:42:14;16.77;;;6.45;;
19758;SDS011;10038;42.662;23.278;2022-12-20T13:44:43;14.57;;;6.97;;
19758;SDS011;10038;42.662;23.278;2022-12-20T13:53:02;14.90;;;8.35;;
19758;SDS011;10038;42.662;23.278;2022-12-20T13:55:35;13.93;;;8.32;;
19758;SDS011;10038;42.662;23.278;2022-12-20T13:58:09;22.40;;;9.00;;
19758;SDS011;10038;42.662;23.278;2022-12-20T14:00:36;15.50;;;8.60;;
19758;SDS011;10038;42.662;23.278;2022-12-20T14:03:03;16.13;;;9.50;;
19758;SDS011;10038;42.662;23.278;2022-12-20T14:05:30;17.98;;;9.88;;
19758;SDS011;10038;42.662;23.278;2022-12-20T14:07:59;13.50;;;9.15;;
19758;SDS011;10038;42.662;23.278;2022-12-20T14:10:28;15.95;;;9.32;;
19758;SDS011;10038;42.662;23.278;2022-12-20T14:12:56;20.65;;;10.75;;
19758;SDS011;10038;42.662;23.278;2022-12-20T14:15:25;22.05;;;9.88;;
19758;SDS011;10038;42.662;23.278;2022-12-20T14:17:52;15.32;;;9.38;;
19758;SDS011;10038;42.662;23.278;2022-12-20T14:20:20;23.15;;;10.60;;
19758;SDS011;10038;42.662;23.278;2022-12-20T14:22:49;21.63;;;10.13;;
19758;SDS011;10038;42.662;23.278;2022-12-20T14:25:20;19.23;;;10.00;;
19758;SDS011;10038;42.662;23.278;2022-12-20T14:27:49;23.02;;;10.10;;
19758;SDS011;10038;42.662;23.278;2022-12-20T14:33:13;14.40;;;9.35;;
19758;SDS011;10038;42.662;23.278;2022-12-20T14:35:43;19.05;;;9.32;;
19758;SDS011;10038;42.662;23.278;2022-12-20T14:38:18;17.08;;;8.63;;
19758;SDS011;10038;42.662;23.278;2022-12-20T14:40:46;16.58;;;8.65;;
19758;SDS011;10038;42.662;23.278;2022-12-20T14:43:13;12.18;;;9.00;;
19758;SDS011;10038;42.662;23.278;2022-12-20T14:45:40;15.48;;;8.98;;
19758;SDS011;10038;42.662;23.278;2022-12-20T14:48:11;19.30;;;9.25;;
19758;SDS011;10038;42.662;23.278;2022-12-20T14:50:44;20.90;;;10.88;;
19758;SDS011;10038;42.662;23.278;2022-12-20T14:53:16;22.70;;;11.02;;
19758;SDS011;10038;42.662;23.278;2022-12-20T14:55:44;28.92;;;10.90;;
19758;SDS011;10038;42.662;23.278;2022-12-20T14:58:22;25.60;;;10.95;;
19758;SDS011;10038;42.662;23.278;2022-12-20T15:00:54;17.33;;;9.23;;
19758;SDS011;10038;42.662;23.278;2022-12-20T15:03:21;20.65;;;10.32;;
19758;SDS011;10038;42.662;23.278;2022-12-20T15:05:49;27.00;;;13.30;;
19758;SDS011;10038;42.662;23.278;2022-12-20T15:08:18;25.25;;;12.45;;